sensor_id;sensor_type;location;lat;lon;timestamp;P1;durP1;ratioP1;P2;durP2;ratioP2
8580;SDS011;4328;48.622;9.230;2024-03-02T00:01:14;27.43;;;16.87;;
8580;SDS011;4328;48.622;9.230;2024-03-02T00:03:41;22.00;;;15.50;;
8580;SDS011;4328;48.622;9.230;2024-03-02T00:06:08;30.93;;;20.03;;
8580;SDS011;4328;48.622;9.230;2024-03-02T00:08:37;24.23;;;19.23;;
8580;SDS011;4328;48.622;9.230;2024-03-02T00:11:04;30.70;;;18.80;;
8580;SDS011;4328;48.622;9.230;2024-03-02T00:13:30;26.13;;;20.53;;
8580;SDS011;4328;48.622;9.230;2024-03-02T00:15:58;26.30;;;16.80;;
8580;SDS011;4328;48.622;9.230;2024-03-02T00:18:26;21.87;;;18.43;;
8580;SDS011;4328;48.622;9.230;2024-03-02T00:20:56;22.60;;;15.20;;
8580;SDS011;4328;48.622;9.230;2024-03-02T00:23:24;25.90;;;19.27;;
8580;SDS011;4328;48.622;9.230;2024-03-02T00:25:55;24.47;;;17.77;;
8580;SDS011;4328;48.622;9.230;2024-03-02T00:28:22;23.87;;;17.37;;
8580;SDS011;4328;48.622;9.230;2024-03-02T00:30:52;24.80;;;20.17;;
8580;SDS011;4328;48.622;9.230;2024-03-02T00:33:23;26.97;;;22.07;;
8580;SDS011;4328;48.622;9.230;2024-03-02T00:35:52;30.70;;;25.77;;
8580;SDS011;4328;48.622;9.230;2024-03-02T00:38:18;33.80;;;24.60;;
8580;SDS011;4328;48.622;9.230;2024-03-02T00:40:45;31.63;;;28.33;;
8580;SDS011;4328;48.622;9.230;2024-03-02T00:43:20;36.20;;;29.63;;
8580;SDS011;4328;48.622;9.230;2024-03-02T00:46:06;36.63;;;32.77;;
8580;SDS011;4328;48.622;9.230;2024-03-02T00:48:33;31.13;;;28.20;;
8580;SDS011;4328;48.622;9.230;2024-03-02T00:51:01;27.37;;;24.67;;
8580;SDS011;4328;48.622;9.230;2024-03-02T00:53:28;23.20;;;20.63;;
8580;SDS011;4328;48.622;9.230;2024-03-02T00:55:56;26.53;;;20.83;;
8580;SDS011;4328;48.622;9.230;2024-03-02T00:58:24;27.53;;;21.03;;
8580;SDS011;4328;48.622;9.230;2024-03-02T01:00:51;30.17;;;20.47;;
8580;SDS011;4328;48.622;9.230;2024-03-02T01:03:18;32.93;;;24.67;;
8580;SDS011;4328;48.622;9.230;2024-03-02T01:05:44;29.63;;;25.03;;
8580;SDS011;4328;48.622;9.230;2024-03-02T01:08:11;29.27;;;26.03;;
8580;SDS011;4328;48.622;9.230;2024-03-02T01:10:38;29.13;;;26.20;;
8580;SDS011;4328;48.622;9.230;2024-03-02T01:13:05;31.77;;;28.80;;
8580;SDS011;4328;48.622;9.230;2024-03-02T01:15:33;36.70;;;33.17;;
8580;SDS011;4328;48.622;9.230;2024-03-02T01:17:59;32.87;;;29.87;;
8580;SDS011;4328;48.622;9.230;2024-03-02T01:20:26;29.90;;;26.43;;
8580;SDS011;4328;48.622;9.230;2024-03-02T01:22:53;50.30;;;30.63;;
8580;SDS011;4328;48.622;9.230;2024-03-02T01:25:20;32.27;;;24.80;;
8580;SDS011;4328;48.622;9.230;2024-03-02T01:27:47;28.63;;;23.93;;
8580;SDS011;4328;48.622;9.230;2024-03-02T01:30:13;31.77;;;26.37;;
8580;SDS011;4328;48.622;9.230;2024-03-02T01:32:41;33.13;;;26.80;;
8580;SDS011;4328;48.622;9.230;2024-03-02T01:35:08;30.40;;;26.60;;
8580;SDS011;4328;48.622;9.230;2024-03-02T01:37:35;31.60;;;28.33;;
8580;SDS011;4328;48.622;9.230;2024-03-02T01:40:01;32.03;;;29.07;;
8580;SDS011;4328;48.622;9.230;2024-03-02T01:42:33;30.50;;;27.53;;
8580;SDS011;4328;48.622;9.230;2024-03-02T01:45:00;33.53;;;30.53;;
8580;SDS011;4328;48.622;9.230;2024-03-02T01:47:27;31.90;;;28.37;;
8580;SDS011;4328;48.622;9.230;2024-03-02T01:49:55;30.50;;;27.23;;
8580;SDS011;4328;48.622;9.230;2024-03-02T01:52:21;34.13;;;30.73;;
8580;SDS011;4328;48.622;9.230;2024-03-02T01:54:48;33.07;;;29.73;;
8580;SDS011;4328;48.622;9.230;2024-03-02T01:57:15;31.37;;;28.03;;
8580;SDS011;4328;48.622;9.230;2024-03-02T01:59:41;28.20;;;25.47;;
8580;SDS011;4328;48.622;9.230;2024-03-02T02:02:08;28.33;;;23.40;;
8580;SDS011;4328;48.622;9.230;2024-03-02T02:04:35;28.13;;;25.30;;
8580;SDS011;4328;48.622;9.230;2024-03-02T02:07:03;26.87;;;21.60;;
8580;SDS011;4328;48.622;9.230;2024-03-02T02:09:29;26.63;;;23.80;;
8580;SDS011;4328;48.622;9.230;2024-03-02T02:11:56;26.50;;;23.83;;
8580;SDS011;4328;48.622;9.230;2024-03-02T02:14:22;30.83;;;27.20;;
8580;SDS011;4328;48.622;9.230;2024-03-02T02:16:49;32.07;;;28.73;;
8580;SDS011;4328;48.622;9.230;2024-03-02T02:19:17;29.90;;;26.80;;
8580;SDS011;4328;48.622;9.230;2024-03-02T02:21:45;30.23;;;27.33;;
8580;SDS011;4328;48.622;9.230;2024-03-02T02:24:11;25.37;;;22.33;;
8580;SDS011;4328;48.622;9.230;2024-03-02T02:26:38;32.50;;;29.50;;
8580;SDS011;4328;48.622;9.230;2024-03-02T02:29:04;35.93;;;32.50;;
8580;SDS011;4328;48.622;9.230;2024-03-02T02:31:36;35.50;;;32.23;;
8580;SDS011;4328;48.622;9.230;2024-03-02T02:34:03;31.43;;;28.43;;
8580;SDS011;4328;48.622;9.230;2024-03-02T02:36:29;26.67;;;23.13;;
8580;SDS011;4328;48.622;9.230;2024-03-02T02:38:58;26.53;;;23.93;;
8580;SDS011;4328;48.622;9.230;2024-03-02T02:41:28;30.80;;;27.63;;
8580;SDS011;4328;48.622;9.230;2024-03-02T02:43:55;29.30;;;26.90;;
8580;SDS011;4328;48.622;9.230;2024-03-02T02:46:21;30.50;;;27.33;;
8580;SDS011;4328;48.622;9.230;2024-03-02T02:48:48;29.30;;;26.90;;
8580;SDS011;4328;48.622;9.230;2024-03-02T02:51:16;27.67;;;23.03;;
8580;SDS011;4328;48.622;9.230;2024-03-02T02:53:43;27.47;;;22.57;;
8580;SDS011;4328;48.622;9.230;2024-03-02T02:56:11;23.77;;;20.80;;
8580;SDS011;4328;48.622;9.230;2024-03-02T02:58:37;23.77;;;21.30;;
8580;SDS011;4328;48.622;9.230;2024-03-02T03:01:05;24.30;;;20.60;;
8580;SDS011;4328;48.622;9.230;2024-03-02T03:03:32;23.87;;;21.47;;
8580;SDS011;4328;48.622;9.230;2024-03-02T03:05:59;26.23;;;23.83;;
8580;SDS011;4328;48.622;9.230;2024-03-02T03:08:25;29.90;;;26.83;;
8580;SDS011;4328;48.622;9.230;2024-03-02T03:10:52;36.47;;;28.77;;
8580;SDS011;4328;48.622;9.230;2024-03-02T03:13:20;36.10;;;29.17;;
8580;SDS011;4328;48.622;9.230;2024-03-02T03:15:46;29.80;;;20.50;;
8580;SDS011;4328;48.622;9.230;2024-03-02T03:18:13;26.77;;;20.53;;
8580;SDS011;4328;48.622;9.230;2024-03-02T03:20:40;19.93;;;17.57;;
8580;SDS011;4328;48.622;9.230;2024-03-02T03:23:06;21.77;;;19.00;;
8580;SDS011;4328;48.622;9.230;2024-03-02T03:25:33;31.80;;;20.80;;
8580;SDS011;4328;48.622;9.230;2024-03-02T03:28:00;23.10;;;19.73;;
8580;SDS011;4328;48.622;9.230;2024-03-02T03:30:29;27.50;;;20.40;;
8580;SDS011;4328;48.622;9.230;2024-03-02T03:32:56;52.10;;;23.30;;
8580;SDS011;4328;48.622;9.230;2024-03-02T03:35:22;29.90;;;18.93;;
8580;SDS011;4328;48.622;9.230;2024-03-02T03:37:49;24.23;;;17.30;;
8580;SDS011;4328;48.622;9.230;2024-03-02T03:40:15;21.17;;;18.93;;
8580;SDS011;4328;48.622;9.230;2024-03-02T03:42:43;47.33;;;22.83;;
8580;SDS011;4328;48.622;9.230;2024-03-02T03:45:10;23.83;;;17.20;;
8580;SDS011;4328;48.622;9.230;2024-03-02T03:47:37;21.13;;;18.87;;
8580;SDS011;4328;48.622;9.230;2024-03-02T03:50:04;24.23;;;17.30;;
8580;SDS011;4328;48.622;9.230;2024-03-02T03:52:32;31.50;;;21.33;;
8580;SDS011;4328;48.622;9.230;2024-03-02T03:54:58;25.27;;;20.30;;
8580;SDS011;4328;48.622;9.230;2024-03-02T03:57:25;26.60;;;23.03;;
8580;SDS011;4328;48.622;9.230;2024-03-02T03:59:52;25.27;;;22.60;;
8580;SDS011;4328;48.622;9.230;2024-03-02T04:02:19;24.13;;;21.33;;
8580;SDS011;4328;48.622;9.230;2024-03-02T04:04:47;28.10;;;22.23;;
8580;SDS011;4328;48.622;9.230;2024-03-02T04:07:14;24.27;;;21.93;;
8580;SDS011;4328;48.622;9.230;2024-03-02T04:09:40;31.53;;;25.50;;
8580;SDS011;4328;48.622;9.230;2024-03-02T04:12:07;25.13;;;22.87;;
8580;SDS011;4328;48.622;9.230;2024-03-02T04:14:33;30.87;;;22.27;;
8580;SDS011;4328;48.622;9.230;2024-03-02T04:17:00;23.50;;;20.50;;
8580;SDS011;4328;48.622;9.230;2024-03-02T04:19:26;33.67;;;22.30;;
8580;SDS011;4328;48.622;9.230;2024-03-02T04:21:54;25.53;;;21.97;;
8580;SDS011;4328;48.622;9.230;2024-03-02T04:24:21;27.17;;;23.30;;
8580;SDS011;4328;48.622;9.230;2024-03-02T04:26:48;26.40;;;23.80;;
8580;SDS011;4328;48.622;9.230;2024-03-02T04:29:15;39.27;;;30.97;;
8580;SDS011;4328;48.622;9.230;2024-03-02T04:31:41;28.37;;;25.30;;
8580;SDS011;4328;48.622;9.230;2024-03-02T04:34:08;33.53;;;30.37;;
8580;SDS011;4328;48.622;9.230;2024-03-02T04:36:35;29.93;;;26.17;;
8580;SDS011;4328;48.622;9.230;2024-03-02T04:39:03;28.23;;;25.77;;
8580;SDS011;4328;48.622;9.230;2024-03-02T04:41:30;33.23;;;30.10;;
8580;SDS011;4328;48.622;9.230;2024-03-02T04:43:56;29.57;;;26.97;;
8580;SDS011;4328;48.622;9.230;2024-03-02T04:46:23;31.77;;;28.77;;
8580;SDS011;4328;48.622;9.230;2024-03-02T04:48:49;34.17;;;31.20;;
8580;SDS011;4328;48.622;9.230;2024-03-02T04:51:20;31.77;;;28.77;;
8580;SDS011;4328;48.622;9.230;2024-03-02T04:53:47;29.37;;;27.00;;
8580;SDS011;4328;48.622;9.230;2024-03-02T04:56:15;36.43;;;33.00;;
8580;SDS011;4328;48.622;9.230;2024-03-02T04:58:55;31.97;;;29.23;;
8580;SDS011;4328;48.622;9.230;2024-03-02T05:01:22;34.37;;;31.30;;
8580;SDS011;4328;48.622;9.230;2024-03-02T05:03:48;30.77;;;28.37;;
8580;SDS011;4328;48.622;9.230;2024-03-02T05:06:15;37.80;;;34.30;;
8580;SDS011;4328;48.622;9.230;2024-03-02T05:08:42;33.53;;;30.57;;
8580;SDS011;4328;48.622;9.230;2024-03-02T05:11:10;35.00;;;32.07;;
8580;SDS011;4328;48.622;9.230;2024-03-02T05:14:05;37.73;;;34.87;;
8580;SDS011;4328;48.622;9.230;2024-03-02T05:16:32;42.80;;;38.90;;
8580;SDS011;4328;48.622;9.230;2024-03-02T05:18:59;37.57;;;34.33;;
8580;SDS011;4328;48.622;9.230;2024-03-02T05:21:25;42.13;;;38.37;;
8580;SDS011;4328;48.622;9.230;2024-03-02T05:23:52;37.67;;;34.43;;
8580;SDS011;4328;48.622;9.230;2024-03-02T05:26:19;41.20;;;37.33;;
8580;SDS011;4328;48.622;9.230;2024-03-02T05:28:45;38.80;;;35.23;;
8580;SDS011;4328;48.622;9.230;2024-03-02T05:31:13;35.53;;;32.57;;
8580;SDS011;4328;48.622;9.230;2024-03-02T05:33:41;34.17;;;30.87;;
8580;SDS011;4328;48.622;9.230;2024-03-02T05:36:08;33.80;;;30.80;;
8580;SDS011;4328;48.622;9.230;2024-03-02T05:38:35;36.37;;;33.10;;
8580;SDS011;4328;48.622;9.230;2024-03-02T05:41:02;37.90;;;34.57;;
8580;SDS011;4328;48.622;9.230;2024-03-02T05:43:29;36.30;;;33.03;;
8580;SDS011;4328;48.622;9.230;2024-03-02T05:45:56;35.80;;;32.70;;
8580;SDS011;4328;48.622;9.230;2024-03-02T05:48:24;32.60;;;30.20;;
8580;SDS011;4328;48.622;9.230;2024-03-02T05:50:50;36.07;;;32.97;;
8580;SDS011;4328;48.622;9.230;2024-03-02T05:53:17;40.83;;;37.43;;
8580;SDS011;4328;48.622;9.230;2024-03-02T05:55:44;41.77;;;38.53;;
8580;SDS011;4328;48.622;9.230;2024-03-02T05:58:11;39.60;;;36.07;;
8580;SDS011;4328;48.622;9.230;2024-03-02T06:00:56;43.07;;;38.67;;
8580;SDS011;4328;48.622;9.230;2024-03-02T06:03:24;45.77;;;42.00;;
8580;SDS011;4328;48.622;9.230;2024-03-02T06:05:51;45.50;;;41.70;;
8580;SDS011;4328;48.622;9.230;2024-03-02T06:08:17;46.83;;;43.20;;
8580;SDS011;4328;48.622;9.230;2024-03-02T06:10:44;48.23;;;43.80;;
8580;SDS011;4328;48.622;9.230;2024-03-02T06:13:11;42.90;;;39.53;;
8580;SDS011;4328;48.622;9.230;2024-03-02T06:15:37;43.63;;;39.53;;
8580;SDS011;4328;48.622;9.230;2024-03-02T06:18:04;40.50;;;36.80;;
8580;SDS011;4328;48.622;9.230;2024-03-02T06:20:33;43.60;;;39.77;;
8580;SDS011;4328;48.622;9.230;2024-03-02T06:23:00;45.10;;;41.30;;
8580;SDS011;4328;48.622;9.230;2024-03-02T06:25:26;49.20;;;45.17;;
8580;SDS011;4328;48.622;9.230;2024-03-02T06:27:53;46.90;;;43.00;;
8580;SDS011;4328;48.622;9.230;2024-03-02T06:30:19;49.27;;;44.03;;
8580;SDS011;4328;48.622;9.230;2024-03-02T06:32:45;63.03;;;45.73;;
8580;SDS011;4328;48.622;9.230;2024-03-02T06:35:12;45.93;;;42.53;;
8580;SDS011;4328;48.622;9.230;2024-03-02T06:37:40;45.00;;;40.90;;
8580;SDS011;4328;48.622;9.230;2024-03-02T06:40:07;50.70;;;46.27;;
8580;SDS011;4328;48.622;9.230;2024-03-02T06:42:34;52.73;;;47.93;;
8580;SDS011;4328;48.622;9.230;2024-03-02T06:45:01;51.50;;;46.87;;
8580;SDS011;4328;48.622;9.230;2024-03-02T06:47:27;52.37;;;47.57;;
8580;SDS011;4328;48.622;9.230;2024-03-02T06:49:54;48.10;;;43.90;;
8580;SDS011;4328;48.622;9.230;2024-03-02T06:52:22;51.70;;;46.93;;
8580;SDS011;4328;48.622;9.230;2024-03-02T06:54:50;46.37;;;42.03;;
8580;SDS011;4328;48.622;9.230;2024-03-02T06:57:16;50.03;;;45.93;;
8580;SDS011;4328;48.622;9.230;2024-03-02T06:59:44;49.13;;;44.53;;
8580;SDS011;4328;48.622;9.230;2024-03-02T07:02:11;50.93;;;47.10;;
8580;SDS011;4328;48.622;9.230;2024-03-02T07:04:38;50.40;;;45.83;;
8580;SDS011;4328;48.622;9.230;2024-03-02T07:07:05;49.60;;;45.83;;
8580;SDS011;4328;48.622;9.230;2024-03-02T07:09:31;47.57;;;43.93;;
8580;SDS011;4328;48.622;9.230;2024-03-02T07:11:59;53.53;;;49.50;;
8580;SDS011;4328;48.622;9.230;2024-03-02T07:14:26;54.90;;;50.03;;
8580;SDS011;4328;48.622;9.230;2024-03-02T07:17:12;47.40;;;43.97;;
8580;SDS011;4328;48.622;9.230;2024-03-02T07:19:39;56.10;;;51.20;;
8580;SDS011;4328;48.622;9.230;2024-03-02T07:22:06;36.20;;;33.30;;
8580;SDS011;4328;48.622;9.230;2024-03-02T07:24:38;31.40;;;28.77;;
8580;SDS011;4328;48.622;9.230;2024-03-02T07:27:08;33.07;;;30.57;;
8580;SDS011;4328;48.622;9.230;2024-03-02T07:29:34;48.47;;;44.47;;
8580;SDS011;4328;48.622;9.230;2024-03-02T07:32:01;52.43;;;48.37;;
8580;SDS011;4328;48.622;9.230;2024-03-02T07:34:28;60.50;;;56.13;;
8580;SDS011;4328;48.622;9.230;2024-03-02T07:36:54;58.50;;;54.07;;
8580;SDS011;4328;48.622;9.230;2024-03-02T07:39:21;55.33;;;51.70;;
8580;SDS011;4328;48.622;9.230;2024-03-02T07:41:48;65.90;;;60.80;;
8580;SDS011;4328;48.622;9.230;2024-03-02T07:44:16;52.90;;;49.10;;
8580;SDS011;4328;48.622;9.230;2024-03-02T07:46:44;62.17;;;57.40;;
8580;SDS011;4328;48.622;9.230;2024-03-02T07:49:11;57.57;;;53.30;;
8580;SDS011;4328;48.622;9.230;2024-03-02T07:51:39;73.30;;;67.57;;
8580;SDS011;4328;48.622;9.230;2024-03-02T07:54:05;54.67;;;50.97;;
8580;SDS011;4328;48.622;9.230;2024-03-02T07:56:32;48.50;;;44.87;;
8580;SDS011;4328;48.622;9.230;2024-03-02T07:58:59;39.67;;;37.03;;
8580;SDS011;4328;48.622;9.230;2024-03-02T08:01:28;45.23;;;41.60;;
8580;SDS011;4328;48.622;9.230;2024-03-02T08:03:55;51.43;;;47.37;;
8580;SDS011;4328;48.622;9.230;2024-03-02T08:06:23;44.73;;;41.23;;
8580;SDS011;4328;48.622;9.230;2024-03-02T08:08:52;43.57;;;39.53;;
8580;SDS011;4328;48.622;9.230;2024-03-02T08:11:19;46.30;;;42.83;;
8580;SDS011;4328;48.622;9.230;2024-03-02T08:13:45;53.03;;;48.27;;
8580;SDS011;4328;48.622;9.230;2024-03-02T08:16:12;53.77;;;49.57;;
8580;SDS011;4328;48.622;9.230;2024-03-02T08:18:40;58.93;;;55.10;;
8580;SDS011;4328;48.622;9.230;2024-03-02T08:21:07;82.57;;;77.03;;
8580;SDS011;4328;48.622;9.230;2024-03-02T08:23:34;81.27;;;76.33;;
8580;SDS011;4328;48.622;9.230;2024-03-02T08:26:01;142.43;;;133.40;;
8580;SDS011;4328;48.622;9.230;2024-03-02T08:28:28;223.23;;;209.80;;
8580;SDS011;4328;48.622;9.230;2024-03-02T08:30:54;271.77;;;256.47;;
8580;SDS011;4328;48.622;9.230;2024-03-02T08:33:21;294.93;;;279.20;;
8580;SDS011;4328;48.622;9.230;2024-03-02T08:35:49;331.27;;;313.50;;
8580;SDS011;4328;48.622;9.230;2024-03-02T08:38:16;351.00;;;332.13;;
8580;SDS011;4328;48.622;9.230;2024-03-02T08:40:43;370.23;;;349.03;;
8580;SDS011;4328;48.622;9.230;2024-03-02T08:43:10;381.13;;;361.13;;
8580;SDS011;4328;48.622;9.230;2024-03-02T08:45:37;352.27;;;334.10;;
8580;SDS011;4328;48.622;9.230;2024-03-02T08:48:05;382.13;;;362.07;;
8580;SDS011;4328;48.622;9.230;2024-03-02T08:50:33;384.20;;;363.83;;
8580;SDS011;4328;48.622;9.230;2024-03-02T08:53:01;385.27;;;361.67;;
8580;SDS011;4328;48.622;9.230;2024-03-02T08:55:28;384.60;;;363.47;;
8580;SDS011;4328;48.622;9.230;2024-03-02T08:57:55;387.57;;;365.70;;
8580;SDS011;4328;48.622;9.230;2024-03-02T09:00:21;381.87;;;359.77;;
8580;SDS011;4328;48.622;9.230;2024-03-02T09:02:48;397.10;;;372.43;;
8580;SDS011;4328;48.622;9.230;2024-03-02T09:05:15;433.47;;;407.77;;
8580;SDS011;4328;48.622;9.230;2024-03-02T09:07:42;438.00;;;411.70;;
8580;SDS011;4328;48.622;9.230;2024-03-02T09:10:10;387.17;;;363.63;;
8580;SDS011;4328;48.622;9.230;2024-03-02T09:12:37;391.97;;;368.03;;
8580;SDS011;4328;48.622;9.230;2024-03-02T09:15:04;391.00;;;367.43;;
8580;SDS011;4328;48.622;9.230;2024-03-02T09:17:31;413.60;;;388.03;;
8580;SDS011;4328;48.622;9.230;2024-03-02T09:19:58;770.00;;;716.43;;
8580;SDS011;4328;48.622;9.230;2024-03-02T09:22:25;778.23;;;724.60;;
8580;SDS011;4328;48.622;9.230;2024-03-02T09:24:52;796.77;;;741.60;;
8580;SDS011;4328;48.622;9.230;2024-03-02T09:27:19;806.23;;;749.87;;
8580;SDS011;4328;48.622;9.230;2024-03-02T09:29:46;908.07;;;843.53;;
8580;SDS011;4328;48.622;9.230;2024-03-02T09:32:13;881.37;;;817.60;;
8580;SDS011;4328;48.622;9.230;2024-03-02T09:34:39;878.70;;;813.30;;
8580;SDS011;4328;48.622;9.230;2024-03-02T09:37:06;892.28;;;825.47;;
8580;SDS011;4328;48.622;9.230;2024-03-02T09:39:33;928.42;;;856.95;;
8580;SDS011;4328;48.622;9.230;2024-03-02T09:42:00;888.72;;;819.33;;
8580;SDS011;4328;48.622;9.230;2024-03-02T09:44:29;686.00;;;634.10;;
8580;SDS011;4328;48.622;9.230;2024-03-02T09:46:56;720.63;;;664.97;;
8580;SDS011;4328;48.622;9.230;2024-03-02T09:49:22;865.20;;;796.47;;
8580;SDS011;4328;48.622;9.230;2024-03-02T09:51:49;872.35;;;802.67;;
8580;SDS011;4328;48.622;9.230;2024-03-02T09:54:16;895.08;;;823.38;;
8580;SDS011;4328;48.622;9.230;2024-03-02T09:56:42;907.30;;;833.90;;
8580;SDS011;4328;48.622;9.230;2024-03-02T09:59:10;921.25;;;846.40;;
8580;SDS011;4328;48.622;9.230;2024-03-02T10:01:39;907.35;;;833.25;;
8580;SDS011;4328;48.622;9.230;2024-03-02T10:04:06;864.08;;;793.38;;
8580;SDS011;4328;48.622;9.230;2024-03-02T10:06:33;882.55;;;810.28;;
8580;SDS011;4328;48.622;9.230;2024-03-02T10:08:59;973.30;;;892.10;;
8580;SDS011;4328;48.622;9.230;2024-03-02T10:11:26;955.60;;;876.00;;
8580;SDS011;4328;48.622;9.230;2024-03-02T10:14:07;981.70;;;898.85;;
8580;SDS011;4328;48.622;9.230;2024-03-02T10:16:35;977.95;;;895.60;;
8580;SDS011;4328;48.622;9.230;2024-03-02T10:19:16;989.45;;;905.85;;
8580;SDS011;4328;48.622;9.230;2024-03-02T10:21:43;1006.80;;;921.72;;
8580;SDS011;4328;48.622;9.230;2024-03-02T10:24:10;984.38;;;900.88;;
8580;SDS011;4328;48.622;9.230;2024-03-02T10:26:37;965.40;;;883.67;;
8580;SDS011;4328;48.622;9.230;2024-03-02T10:29:04;982.13;;;898.20;;
8580;SDS011;4328;48.622;9.230;2024-03-02T10:31:31;961.53;;;879.45;;
8580;SDS011;4328;48.622;9.230;2024-03-02T10:33:59;979.72;;;895.08;;
8580;SDS011;4328;48.622;9.230;2024-03-02T10:36:28;920.92;;;842.15;;
8580;SDS011;4328;48.622;9.230;2024-03-02T10:38:56;936.90;;;856.83;;
8580;SDS011;4328;48.622;9.230;2024-03-02T10:41:24;958.13;;;876.80;;
8580;SDS011;4328;48.622;9.230;2024-03-02T10:43:53;981.20;;;897.00;;
8580;SDS011;4328;48.622;9.230;2024-03-02T10:46:24;927.65;;;848.00;;
8580;SDS011;4328;48.622;9.230;2024-03-02T10:48:54;931.25;;;852.33;;
8580;SDS011;4328;48.622;9.230;2024-03-02T10:51:21;940.53;;;861.03;;
8580;SDS011;4328;48.622;9.230;2024-03-02T10:53:49;824.67;;;756.22;;
8580;SDS011;4328;48.622;9.230;2024-03-02T10:56:16;838.72;;;769.58;;
8580;SDS011;4328;48.622;9.230;2024-03-02T10:58:52;829.63;;;760.80;;
8580;SDS011;4328;48.622;9.230;2024-03-02T11:01:26;921.17;;;842.45;;
8580;SDS011;4328;48.622;9.230;2024-03-02T11:03:54;900.50;;;824.13;;
8580;SDS011;4328;48.622;9.230;2024-03-02T11:06:23;916.80;;;838.03;;
8580;SDS011;4328;48.622;9.230;2024-03-02T11:08:53;889.90;;;814.20;;
8580;SDS011;4328;48.622;9.230;2024-03-02T11:11:29;869.05;;;796.40;;
8580;SDS011;4328;48.622;9.230;2024-03-02T11:14:00;886.20;;;813.15;;
8580;SDS011;4328;48.622;9.230;2024-03-02T11:16:33;880.70;;;809.03;;
8580;SDS011;4328;48.622;9.230;2024-03-02T11:19:03;886.70;;;813.28;;
8580;SDS011;4328;48.622;9.230;2024-03-02T11:21:31;919.63;;;842.63;;
8580;SDS011;4328;48.622;9.230;2024-03-02T11:24:00;911.85;;;835.10;;
8580;SDS011;4328;48.622;9.230;2024-03-02T11:26:28;897.65;;;822.40;;
8580;SDS011;4328;48.622;9.230;2024-03-02T11:28:54;906.03;;;830.33;;
8580;SDS011;4328;48.622;9.230;2024-03-02T11:31:22;915.90;;;839.33;;
8580;SDS011;4328;48.622;9.230;2024-03-02T11:33:48;912.42;;;835.72;;
8580;SDS011;4328;48.622;9.230;2024-03-02T11:36:15;925.97;;;848.20;;
8580;SDS011;4328;48.622;9.230;2024-03-02T11:38:43;927.45;;;848.83;;
8580;SDS011;4328;48.622;9.230;2024-03-02T11:41:12;915.00;;;837.58;;
8580;SDS011;4328;48.622;9.230;2024-03-02T11:43:39;921.63;;;843.65;;
8580;SDS011;4328;48.622;9.230;2024-03-02T11:46:09;918.38;;;840.50;;
8580;SDS011;4328;48.622;9.230;2024-03-02T11:48:38;934.17;;;856.03;;
8580;SDS011;4328;48.622;9.230;2024-03-02T11:51:05;929.83;;;851.90;;
8580;SDS011;4328;48.622;9.230;2024-03-02T11:53:32;930.20;;;852.17;;
8580;SDS011;4328;48.622;9.230;2024-03-02T11:56:01;847.20;;;776.55;;
8580;SDS011;4328;48.622;9.230;2024-03-02T11:58:32;867.80;;;796.13;;
8580;SDS011;4328;48.622;9.230;2024-03-02T12:01:01;832.00;;;763.92;;
8580;SDS011;4328;48.622;9.230;2024-03-02T12:03:28;843.75;;;775.25;;
8580;SDS011;4328;48.622;9.230;2024-03-02T12:05:55;857.67;;;788.50;;
8580;SDS011;4328;48.622;9.230;2024-03-02T12:08:22;872.20;;;802.35;;
8580;SDS011;4328;48.622;9.230;2024-03-02T12:10:58;898.47;;;826.58;;
8580;SDS011;4328;48.622;9.230;2024-03-02T12:13:25;919.08;;;845.90;;
8580;SDS011;4328;48.622;9.230;2024-03-02T12:15:54;926.20;;;851.50;;
8580;SDS011;4328;48.622;9.230;2024-03-02T12:18:22;936.10;;;860.55;;
8580;SDS011;4328;48.622;9.230;2024-03-02T12:20:48;921.38;;;846.03;;
8580;SDS011;4328;48.622;9.230;2024-03-02T12:23:17;938.28;;;861.45;;
8580;SDS011;4328;48.622;9.230;2024-03-02T12:25:44;923.92;;;848.00;;
8580;SDS011;4328;48.622;9.230;2024-03-02T12:28:11;892.35;;;819.67;;
8580;SDS011;4328;48.622;9.230;2024-03-02T12:30:38;938.70;;;862.38;;
8580;SDS011;4328;48.622;9.230;2024-03-02T12:33:06;957.05;;;878.60;;
8580;SDS011;4328;48.622;9.230;2024-03-02T12:35:33;957.45;;;878.10;;
8580;SDS011;4328;48.622;9.230;2024-03-02T12:37:59;940.30;;;862.10;;
8580;SDS011;4328;48.622;9.230;2024-03-02T12:40:26;893.80;;;819.85;;
8580;SDS011;4328;48.622;9.230;2024-03-02T12:42:53;934.10;;;856.22;;
8580;SDS011;4328;48.622;9.230;2024-03-02T12:45:19;883.25;;;811.10;;
8580;SDS011;4328;48.622;9.230;2024-03-02T12:47:48;927.33;;;850.53;;
8580;SDS011;4328;48.622;9.230;2024-03-02T12:50:17;909.15;;;832.90;;
8580;SDS011;4328;48.622;9.230;2024-03-02T12:52:43;894.35;;;818.83;;
8580;SDS011;4328;48.622;9.230;2024-03-02T12:55:16;919.90;;;841.92;;
8580;SDS011;4328;48.622;9.230;2024-03-02T12:57:43;895.13;;;819.00;;
8580;SDS011;4328;48.622;9.230;2024-03-02T13:00:10;850.67;;;779.05;;
8580;SDS011;4328;48.622;9.230;2024-03-02T13:02:39;882.55;;;808.60;;
8580;SDS011;4328;48.622;9.230;2024-03-02T13:05:07;891.03;;;816.55;;
8580;SDS011;4328;48.622;9.230;2024-03-02T13:07:37;870.95;;;798.92;;
8580;SDS011;4328;48.622;9.230;2024-03-02T13:10:04;874.88;;;802.63;;
8580;SDS011;4328;48.622;9.230;2024-03-02T13:12:32;898.13;;;824.20;;
8580;SDS011;4328;48.622;9.230;2024-03-02T13:14:59;912.55;;;837.10;;
8580;SDS011;4328;48.622;9.230;2024-03-02T13:17:27;940.25;;;861.40;;
8580;SDS011;4328;48.622;9.230;2024-03-02T13:19:55;902.42;;;825.90;;
8580;SDS011;4328;48.622;9.230;2024-03-02T13:22:22;888.33;;;813.13;;
8580;SDS011;4328;48.622;9.230;2024-03-02T13:24:51;919.22;;;840.95;;
8580;SDS011;4328;48.622;9.230;2024-03-02T13:27:19;928.75;;;849.58;;
8580;SDS011;4328;48.622;9.230;2024-03-02T13:29:46;926.90;;;847.25;;
8580;SDS011;4328;48.622;9.230;2024-03-02T13:32:13;958.42;;;875.13;;
8580;SDS011;4328;48.622;9.230;2024-03-02T13:34:40;884.08;;;808.47;;
8580;SDS011;4328;48.622;9.230;2024-03-02T13:37:06;902.90;;;826.75;;
8580;SDS011;4328;48.622;9.230;2024-03-02T13:39:33;889.50;;;814.53;;
8580;SDS011;4328;48.622;9.230;2024-03-02T13:42:06;933.80;;;855.65;;
8580;SDS011;4328;48.622;9.230;2024-03-02T13:44:33;926.13;;;847.60;;
8580;SDS011;4328;48.622;9.230;2024-03-02T13:47:00;915.80;;;838.65;;
8580;SDS011;4328;48.622;9.230;2024-03-02T13:49:27;898.03;;;823.65;;
8580;SDS011;4328;48.622;9.230;2024-03-02T13:51:58;889.55;;;816.85;;
8580;SDS011;4328;48.622;9.230;2024-03-02T13:54:28;916.22;;;841.47;;
8580;SDS011;4328;48.622;9.230;2024-03-02T13:56:54;898.10;;;824.92;;
8580;SDS011;4328;48.622;9.230;2024-03-02T13:59:23;883.60;;;810.95;;
8580;SDS011;4328;48.622;9.230;2024-03-02T14:01:49;906.67;;;831.78;;
8580;SDS011;4328;48.622;9.230;2024-03-02T14:04:16;904.88;;;829.33;;
8580;SDS011;4328;48.622;9.230;2024-03-02T14:06:43;899.28;;;823.95;;
8580;SDS011;4328;48.622;9.230;2024-03-02T14:09:09;860.08;;;789.03;;
8580;SDS011;4328;48.622;9.230;2024-03-02T14:11:36;821.70;;;755.38;;
8580;SDS011;4328;48.622;9.230;2024-03-02T14:14:02;840.53;;;772.75;;
8580;SDS011;4328;48.622;9.230;2024-03-02T14:16:30;778.28;;;717.78;;
8580;SDS011;4328;48.622;9.230;2024-03-02T14:18:57;795.40;;;735.00;;
8580;SDS011;4328;48.622;9.230;2024-03-02T14:21:24;810.33;;;749.50;;
8580;SDS011;4328;48.622;9.230;2024-03-02T14:23:51;551.50;;;512.30;;
8580;SDS011;4328;48.622;9.230;2024-03-02T14:26:17;498.63;;;462.77;;
8580;SDS011;4328;48.622;9.230;2024-03-02T14:28:44;467.00;;;434.37;;
8580;SDS011;4328;48.622;9.230;2024-03-02T14:31:11;467.67;;;434.77;;
8580;SDS011;4328;48.622;9.230;2024-03-02T14:33:39;447.43;;;416.27;;
8580;SDS011;4328;48.622;9.230;2024-03-02T14:36:06;410.07;;;381.53;;
8580;SDS011;4328;48.622;9.230;2024-03-02T14:38:33;461.37;;;428.60;;